Time;durP1;ratioP1;P1;durP2;ratioP2;P2;SDS_P1;SDS_P2;PMS_P1;PMS_P2;Temp;Humidity;BMP_temperature;BMP_pressure;BME280_temperature;BME280_humidity;BME280_pressure;Samples;Min_cycle;Max_cycle;Signal;HPM_P1;HPM_P2
2023/08/13 02:00:12;;;;;;;10.43;3.83;;;;;;;;;;5038087;27;19969;-78
2023/08/13 02:02:40;;;;;;;4.15;3.25;;;;;;;;;;4311139;33;20037;-79
2023/08/13 02:05:07;;;;;;;5.00;3.28;;;;;;;;;;4313434;33;20037;-79
2023/08/13 02:07:34;;;;;;;7.55;3.00;;;;;;;;;;4312363;33;20430;-82
2023/08/13 02:10:00;;;;;;;9.85;2.53;;;;;;;;;;4311711;33;20049;-80
2023/08/13 02:12:26;;;;;;;11.90;3.10;;;;;;;;;;4311403;33;20057;-77
2023/08/13 02:14:52;;;;;;;10.68;3.53;;;;;;;;;;4320257;33;20044;-80
2023/08/13 02:17:19;;;;;;;14.32;3.47;;;;;;;;;;4295308;33;20128;-80
2023/08/13 02:19:52;;;;;;;4.07;3.25;;;;;;;;;;4282663;33;20137;-80
2023/08/13 02:22:18;;;;;;;4.75;3.25;;;;;;;;;;4284394;33;20185;-80
2023/08/13 02:24:44;;;;;;;5.00;3.15;;;;;;;;;;4286343;33;20109;-82
2023/08/13 02:27:11;;;;;;;4.82;2.55;;;;;;;;;;4285555;33;20081;-81
2023/08/13 02:29:37;;;;;;;4.15;3.72;;;;;;;;;;4283820;33;20085;-86
2023/08/13 02:32:03;;;;;;;10.73;3.37;;;;;;;;;;4281466;33;20109;-81
2023/08/13 02:34:32;;;;;;;4.62;2.87;;;;;;;;;;4280802;33;20085;-80
2023/08/13 02:36:58;;;;;;;9.20;3.37;;;;;;;;;;4279110;33;20104;-81
2023/08/13 02:39:24;;;;;;;9.77;2.80;;;;;;;;;;4276185;33;20108;-79
2023/08/13 02:41:50;;;;;;;12.30;3.05;;;;;;;;;;4272635;33;20049;-82
2023/08/13 02:44:16;;;;;;;5.93;4.00;;;;;;;;;;4265157;33;20381;-79
2023/08/13 02:46:42;;;;;;;7.22;3.33;;;;;;;;;;4265888;33;20239;-79
2023/08/13 02:49:10;;;;;;;3.92;2.97;;;;;;;;;;4279760;33;20034;-80
2023/08/13 02:51:37;;;;;;;6.90;3.35;;;;;;;;;;4292951;33;20037;-80
2023/08/13 02:54:02;;;;;;;4.30;2.95;;;;;;;;;;4278828;33;20831;-84
2023/08/13 02:56:29;;;;;;;3.12;2.60;;;;;;;;;;4280730;33;20074;-80
2023/08/13 02:58:55;;;;;;;4.15;2.90;;;;;;;;;;4280822;33;20034;-80
2023/08/13 03:01:21;;;;;;;13.07;3.80;;;;;;;;;;4280715;33;20055;-80
2023/08/13 03:03:52;;;;;;;11.88;3.28;;;;;;;;;;4265713;33;20391;-83
2023/08/13 03:06:19;;;;;;;4.73;2.87;;;;;;;;;;4267136;33;20642;-79
2023/08/13 03:08:45;;;;;;;6.70;3.05;;;;;;;;;;4266068;33;20132;-81
2023/08/13 03:11:12;;;;;;;7.80;2.80;;;;;;;;;;4266418;33;20061;-80
2023/08/13 03:13:38;;;;;;;4.45;3.10;;;;;;;;;;4265420;33;20081;-79
2023/08/13 03:16:04;;;;;;;7.35;2.95;;;;;;;;;;4265240;33;20049;-84
2023/08/13 03:18:31;;;;;;;11.80;3.42;;;;;;;;;;4255020;33;20064;-79
2023/08/13 03:20:58;;;;;;;6.25;3.00;;;;;;;;;;4252623;33;20481;-80
2023/08/13 03:23:24;;;;;;;4.37;2.70;;;;;;;;;;4253246;33;20392;-80
2023/08/13 03:25:50;;;;;;;9.55;3.25;;;;;;;;;;4275904;33;20057;-81
2023/08/13 03:28:18;;;;;;;7.03;2.90;;;;;;;;;;4278952;33;20067;-82
2023/08/13 03:30:44;;;;;;;6.28;2.92;;;;;;;;;;4280323;33;20087;-80
2023/08/13 03:33:10;;;;;;;2.97;2.67;;;;;;;;;;4281237;33;20067;-80
2023/08/13 03:35:38;;;;;;;7.53;3.20;;;;;;;;;;4281305;33;20050;-80
2023/08/13 03:38:04;;;;;;;3.75;3.17;;;;;;;;;;4279603;33;20029;-79
2023/08/13 03:40:32;;;;;;;3.35;3.05;;;;;;;;;;4284625;33;20082;-81
2023/08/13 03:42:59;;;;;;;4.72;3.30;;;;;;;;;;4312136;33;20033;-80
2023/08/13 03:45:25;;;;;;;3.75;2.78;;;;;;;;;;4312136;33;20062;-80
2023/08/13 03:47:52;;;;;;;4.90;2.95;;;;;;;;;;4294115;33;20086;-79
2023/08/13 03:50:18;;;;;;;15.73;3.53;;;;;;;;;;4291821;33;20077;-79
2023/08/13 03:52:44;;;;;;;8.85;3.20;;;;;;;;;;4295405;33;20379;-79
2023/08/13 03:55:11;;;;;;;6.07;4.18;;;;;;;;;;4295656;33;20049;-79
2023/08/13 03:57:38;;;;;;;6.55;3.92;;;;;;;;;;4295170;33;20098;-80
2023/08/13 04:00:05;;;;;;;5.87;3.33;;;;;;;;;;4294969;33;20034;-84
2023/08/13 04:02:40;;;;;;;4.90;3.87;;;;;;;;;;4293803;33;20322;-79
2023/08/13 04:05:07;;;;;;;12.18;3.55;;;;;;;;;;4294331;33;20059;-79
2023/08/13 04:07:33;;;;;;;5.15;3.10;;;;;;;;;;4295137;33;20070;-79
2023/08/13 04:10:01;;;;;;;3.20;2.70;;;;;;;;;;4263427;33;20042;-83
2023/08/13 04:12:34;;;;;;;8.30;2.97;;;;;;;;;;4266371;33;20042;-79
2023/08/13 04:15:01;;;;;;;3.12;2.78;;;;;;;;;;4266587;33;20049;-79
2023/08/13 04:17:27;;;;;;;7.45;3.58;;;;;;;;;;4265793;33;20041;-79
2023/08/13 04:19:53;;;;;;;5.10;2.87;;;;;;;;;;4279427;33;20419;-83
2023/08/13 04:22:19;;;;;;;6.93;3.25;;;;;;;;;;4280377;33;20371;-80
2023/08/13 04:24:50;;;;;;;3.42;2.75;;;;;;;;;;4281138;33;20054;-78
2023/08/13 04:27:17;;;;;;;6.55;3.58;;;;;;;;;;4284321;33;20068;-78
2023/08/13 04:29:44;;;;;;;11.35;3.00;;;;;;;;;;4311867;33;20451;-81
2023/08/13 04:32:10;;;;;;;4.40;3.22;;;;;;;;;;4308406;33;20044;-80
2023/08/13 04:34:37;;;;;;;3.35;3.05;;;;;;;;;;4312334;33;20183;-79
2023/08/13 04:37:04;;;;;;;7.70;2.92;;;;;;;;;;4310574;33;20044;-79
2023/08/13 04:39:30;;;;;;;3.92;2.97;;;;;;;;;;4311678;33;20049;-80
2023/08/13 04:42:00;;;;;;;4.60;2.92;;;;;;;;;;4308568;33;20025;-81
2023/08/13 04:44:27;;;;;;;5.28;3.05;;;;;;;;;;4307906;33;20167;-79
2023/08/13 04:46:53;;;;;;;3.90;2.60;;;;;;;;;;4309793;33;20050;-78
2023/08/13 04:49:20;;;;;;;7.53;2.40;;;;;;;;;;4309247;33;20030;-79
2023/08/13 04:51:46;;;;;;;7.80;3.12;;;;;;;;;;4308836;33;20049;-80
2023/08/13 04:54:12;;;;;;;5.30;3.58;;;;;;;;;;4305079;33;20421;-79
2023/08/13 04:56:39;;;;;;;7.57;2.95;;;;;;;;;;4311559;33;20033;-79
2023/08/13 04:59:06;;;;;;;6.87;2.58;;;;;;;;;;4312129;33;20061;-80
2023/08/13 05:01:32;;;;;;;4.25;3.00;;;;;;;;;;4282013;33;20431;-80
2023/08/13 05:03:59;;;;;;;5.50;3.20;;;;;;;;;;4282880;33;20070;-78
2023/08/13 05:06:26;;;;;;;5.25;3.15;;;;;;;;;;4279762;33;20458;-80
2023/08/13 05:08:53;;;;;;;3.85;2.80;;;;;;;;;;4282375;33;20060;-80
2023/08/13 05:11:19;;;;;;;5.62;2.95;;;;;;;;;;4282831;33;20050;-80
2023/08/13 05:13:46;;;;;;;3.92;2.50;;;;;;;;;;4282913;33;20049;-79
2023/08/13 05:16:12;;;;;;;5.28;2.87;;;;;;;;;;4282225;33;20541;-80
2023/08/13 05:18:40;;;;;;;7.05;2.70;;;;;;;;;;4267171;33;20063;-80
2023/08/13 05:21:06;;;;;;;7.50;5.10;;;;;;;;;;4266885;33;20576;-79
2023/08/13 05:23:39;;;;;;;5.57;2.75;;;;;;;;;;4268262;33;20423;-81
2023/08/13 05:26:05;;;;;;;5.25;2.83;;;;;;;;;;4267905;33;20037;-80
2023/08/13 05:28:31;;;;;;;7.00;2.58;;;;;;;;;;4268531;33;20046;-79
2023/08/13 05:31:02;;;;;;;4.75;3.42;;;;;;;;;;4280053;33;20050;-83
2023/08/13 05:33:28;;;;;;;3.20;2.42;;;;;;;;;;4282196;33;20085;-78
2023/08/13 05:35:54;;;;;;;7.93;2.67;;;;;;;;;;4282625;33;20499;-80
2023/08/13 05:38:21;;;;;;;5.78;2.55;;;;;;;;;;4283041;33;20108;-79
2023/08/13 05:40:47;;;;;;;4.90;2.40;;;;;;;;;;4281146;33;20022;-78
2023/08/13 05:43:13;;;;;;;12.18;3.47;;;;;;;;;;4280016;33;20062;-80
2023/08/13 05:45:41;;;;;;;3.10;2.90;;;;;;;;;;4282499;33;20209;-79
2023/08/13 05:48:07;;;;;;;3.75;2.95;;;;;;;;;;4282604;33;20051;-79
2023/08/13 05:50:33;;;;;;;5.30;3.35;;;;;;;;;;4278927;33;20132;-79
2023/08/13 05:53:00;;;;;;;14.30;3.55;;;;;;;;;;4281756;33;20057;-82
2023/08/13 05:55:26;;;;;;;5.35;3.00;;;;;;;;;;4281053;33;20021;-80
2023/08/13 05:57:52;;;;;;;3.72;2.90;;;;;;;;;;4281099;33;20076;-79
2023/08/13 06:00:18;;;;;;;5.32;2.85;;;;;;;;;;4282566;33;20482;-78
2023/08/13 06:02:45;;;;;;;9.73;3.05;;;;;;;;;;4281024;33;20041;-79
2023/08/13 06:05:11;;;;;;;4.55;3.12;;;;;;;;;;4278999;33;20090;-81
2023/08/13 06:07:37;;;;;;;4.57;3.60;;;;;;;;;;4281270;33;20334;-80
2023/08/13 06:10:04;;;;;;;10.52;3.53;;;;;;;;;;4282044;33;20454;-78
2023/08/13 06:12:31;;;;;;;4.28;3.33;;;;;;;;;;4281404;33;20483;-82
2023/08/13 06:14:58;;;;;;;9.00;2.83;;;;;;;;;;4281583;33;20070;-81
2023/08/13 06:17:24;;;;;;;16.92;3.12;;;;;;;;;;4278892;33;20424;-80
2023/08/13 06:19:50;;;;;;;7.75;2.92;;;;;;;;;;4293227;33;20076;-81
2023/08/13 06:22:16;;;;;;;5.43;2.87;;;;;;;;;;4309304;33;20118;-80
2023/08/13 06:24:43;;;;;;;9.13;3.60;;;;;;;;;;4313203;33;20385;-81
2023/08/13 06:27:09;;;;;;;4.43;3.05;;;;;;;;;;4313093;33;20135;-80
2023/08/13 06:29:35;;;;;;;8.30;3.12;;;;;;;;;;4311187;33;20041;-81
2023/08/13 06:32:01;;;;;;;7.62;3.20;;;;;;;;;;4312790;33;20070;-80
2023/08/13 06:34:27;;;;;;;4.85;2.87;;;;;;;;;;4312955;33;20052;-80
2023/08/13 06:36:53;;;;;;;3.40;3.10;;;;;;;;;;4312820;33;20057;-79
2023/08/13 06:39:21;;;;;;;10.07;3.40;;;;;;;;;;4312409;33;20037;-80
2023/08/13 06:41:47;;;;;;;4.70;2.45;;;;;;;;;;4311826;33;20049;-80
2023/08/13 06:44:18;;;;;;;3.53;3.10;;;;;;;;;;4312881;33;20040;-79
2023/08/13 06:46:45;;;;;;;8.20;2.97;;;;;;;;;;4313166;33;20049;-79
2023/08/13 06:49:11;;;;;;;6.05;2.90;;;;;;;;;;4311045;33;20025;-79
2023/08/13 06:51:38;;;;;;;7.20;3.00;;;;;;;;;;4311078;33;20040;-79
2023/08/13 06:54:04;;;;;;;9.35;3.25;;;;;;;;;;4312699;33;20032;-79
2023/08/13 06:56:30;;;;;;;4.30;3.28;;;;;;;;;;4312215;33;20041;-79
2023/08/13 06:58:56;;;;;;;3.35;3.05;;;;;;;;;;4312738;33;20079;-78
2023/08/13 07:01:23;;;;;;;9.52;3.67;;;;;;;;;;4311662;33;20048;-80
2023/08/13 07:03:49;;;;;;;7.03;3.20;;;;;;;;;;4310323;33;20481;-78
2023/08/13 07:06:15;;;;;;;4.05;3.45;;;;;;;;;;4312401;33;20619;-79
2023/08/13 07:08:42;;;;;;;3.25;2.97;;;;;;;;;;4312403;33;20122;-80
2023/08/13 07:11:08;;;;;;;5.30;2.97;;;;;;;;;;4311922;33;20080;-78
2023/08/13 07:13:34;;;;;;;3.87;3.33;;;;;;;;;;4312068;33;20104;-77
2023/08/13 07:16:00;;;;;;;3.15;2.90;;;;;;;;;;4309034;33;20439;-84
2023/08/13 07:18:26;;;;;;;9.43;2.80;;;;;;;;;;4280923;33;20354;-80
2023/08/13 07:20:52;;;;;;;3.10;2.90;;;;;;;;;;4280315;33;20071;-79
2023/08/13 07:23:18;;;;;;;4.85;3.33;;;;;;;;;;4281051;33;20145;-79
2023/08/13 07:25:45;;;;;;;10.15;3.70;;;;;;;;;;4280036;33;20049;-79
2023/08/13 07:28:10;;;;;;;5.60;3.53;;;;;;;;;;4278957;33;20080;-82
2023/08/13 07:30:37;;;;;;;4.72;3.25;;;;;;;;;;4278815;33;20444;-79
2023/08/13 07:33:03;;;;;;;7.65;2.90;;;;;;;;;;4280702;33;20036;-79
2023/08/13 07:35:30;;;;;;;10.75;3.50;;;;;;;;;;4280021;33;20386;-79
2023/08/13 07:37:56;;;;;;;15.65;3.47;;;;;;;;;;4293905;33;20045;-80
2023/08/13 07:40:29;;;;;;;8.30;3.15;;;;;;;;;;4306269;33;20044;-79
2023/08/13 07:42:57;;;;;;;7.70;2.83;;;;;;;;;;4309944;33;20513;-79
2023/08/13 07:45:24;;;;;;;10.20;3.47;;;;;;;;;;4308345;33;20067;-80
2023/08/13 07:47:49;;;;;;;9.25;3.15;;;;;;;;;;4308969;33;20028;-79
2023/08/13 07:50:16;;;;;;;3.50;2.70;;;;;;;;;;4308119;33;20032;-78
2023/08/13 07:52:50;;;;;;;4.05;3.03;;;;;;;;;;4307355;33;20091;-79
2023/08/13 07:55:16;;;;;;;4.55;3.17;;;;;;;;;;4308247;33;20071;-78
2023/08/13 07:57:42;;;;;;;11.93;3.40;;;;;;;;;;4309192;33;20068;-78
2023/08/13 08:00:10;;;;;;;14.50;3.30;;;;;;;;;;4306856;33;20070;-82
2023/08/13 08:02:38;;;;;;;6.62;2.92;;;;;;;;;;4308311;33;20213;-79
2023/08/13 08:05:07;;;;;;;10.18;3.42;;;;;;;;;;4308573;33;20041;-79
2023/08/13 08:07:33;;;;;;;5.80;3.03;;;;;;;;;;4310020;33;20070;-79
2023/08/13 08:09:59;;;;;;;3.47;3.17;;;;;;;;;;4307120;33;20053;-83
2023/08/13 08:12:25;;;;;;;5.05;3.10;;;;;;;;;;4279345;33;20063;-78
2023/08/13 08:14:52;;;;;;;5.30;3.75;;;;;;;;;;4280770;33;20537;-79
2023/08/13 08:17:18;;;;;;;4.35;3.42;;;;;;;;;;4280808;33;20025;-79
2023/08/13 08:19:44;;;;;;;3.87;2.92;;;;;;;;;;4279053;33;20067;-78
2023/08/13 08:22:10;;;;;;;11.02;3.67;;;;;;;;;;4265842;33;20419;-80
2023/08/13 08:24:36;;;;;;;3.62;3.33;;;;;;;;;;4279209;33;20192;-79
2023/08/13 08:27:03;;;;;;;7.18;3.33;;;;;;;;;;4280876;33;20045;-79
2023/08/13 08:29:29;;;;;;;4.95;3.60;;;;;;;;;;4270920;33;20383;-78
2023/08/13 08:31:55;;;;;;;4.10;3.45;;;;;;;;;;4268164;33;20064;-82
2023/08/13 08:34:21;;;;;;;10.65;3.05;;;;;;;;;;4266516;33;20068;-80
2023/08/13 08:36:48;;;;;;;3.78;3.47;;;;;;;;;;4269189;33;20435;-79
2023/08/13 08:39:20;;;;;;;3.72;2.90;;;;;;;;;;4268652;33;20446;-78
2023/08/13 08:41:47;;;;;;;5.07;3.75;;;;;;;;;;4267310;33;20075;-79
2023/08/13 08:44:20;;;;;;;9.18;3.25;;;;;;;;;;4277064;33;20104;-80
2023/08/13 08:46:53;;;;;;;6.12;3.12;;;;;;;;;;4281681;33;20058;-79
2023/08/13 08:49:21;;;;;;;3.90;2.95;;;;;;;;;;4281739;33;20033;-78
2023/08/13 08:51:48;;;;;;;4.87;2.95;;;;;;;;;;4281404;33;20126;-81
2023/08/13 08:54:14;;;;;;;3.12;2.83;;;;;;;;;;4288521;33;20071;-82
2023/08/13 08:56:41;;;;;;;3.53;2.97;;;;;;;;;;4296704;33;20045;-79
2023/08/13 08:59:07;;;;;;;2.92;2.55;;;;;;;;;;4297665;33;20086;-80
2023/08/13 09:01:33;;;;;;;2.40;2.30;;;;;;;;;;4296827;33;20056;-81
2023/08/13 09:04:00;;;;;;;3.30;2.70;;;;;;;;;;4296726;33;20492;-79
2023/08/13 09:06:44;;;;;;;6.37;3.05;;;;;;;;;;4294192;33;20057;-79
2023/08/13 09:09:10;;;;;;;2.60;2.40;;;;;;;;;;4297606;33;20032;-80
2023/08/13 09:11:37;;;;;;;2.95;2.75;;;;;;;;;;4297135;33;20036;-80
2023/08/13 09:14:03;;;;;;;2.87;2.58;;;;;;;;;;4295982;33;20398;-79
2023/08/13 09:16:29;;;;;;;3.70;3.17;;;;;;;;;;4311747;33;20457;-80
2023/08/13 09:18:55;;;;;;;4.50;2.37;;;;;;;;;;4314260;33;20061;-80
2023/08/13 09:21:29;;;;;;;2.58;2.37;;;;;;;;;;4314062;33;20041;-79
2023/08/13 09:23:58;;;;;;;3.10;2.17;;;;;;;;;;4313911;33;20037;-80
2023/08/13 09:26:27;;;;;;;2.33;2.10;;;;;;;;;;4310705;33;20036;-81
2023/08/13 09:28:54;;;;;;;2.15;1.92;;;;;;;;;;4313903;33;20295;-80
2023/08/13 09:31:23;;;;;;;2.25;2.08;;;;;;;;;;4313929;33;20049;-78
2023/08/13 09:33:51;;;;;;;2.28;2.08;;;;;;;;;;4313981;33;20125;-79
2023/08/13 09:36:17;;;;;;;3.62;2.62;;;;;;;;;;4312178;33;20037;-84
2023/08/13 09:38:43;;;;;;;1.67;1.58;;;;;;;;;;4311680;33;20041;-80
2023/08/13 09:41:10;;;;;;;2.58;2.37;;;;;;;;;;4313096;33;20052;-81
2023/08/13 09:43:37;;;;;;;3.17;2.50;;;;;;;;;;4312409;33;20359;-81
2023/08/13 09:46:06;;;;;;;3.03;2.60;;;;;;;;;;4312380;33;20484;-79
2023/08/13 09:48:32;;;;;;;4.22;2.50;;;;;;;;;;4311287;33;20062;-80
2023/08/13 09:51:00;;;;;;;3.03;2.25;;;;;;;;;;4313747;33;20132;-80
2023/08/13 09:53:27;;;;;;;4.55;2.80;;;;;;;;;;4312420;33;20485;-80
2023/08/13 09:55:55;;;;;;;3.70;2.37;;;;;;;;;;4312167;33;20055;-80
2023/08/13 09:58:22;;;;;;;2.25;2.15;;;;;;;;;;4311793;33;20090;-83
2023/08/13 10:00:49;;;;;;;3.05;2.75;;;;;;;;;;4313036;33;20332;-80
2023/08/13 10:03:18;;;;;;;2.58;2.40;;;;;;;;;;4311848;33;20060;-80
2023/08/13 10:05:44;;;;;;;4.80;2.90;;;;;;;;;;4295855;33;20457;-80
2023/08/13 10:08:11;;;;;;;5.68;2.35;;;;;;;;;;4294880;33;20072;-79
2023/08/13 10:10:38;;;;;;;5.62;2.62;;;;;;;;;;4294574;33;20049;-84
2023/08/13 10:13:04;;;;;;;2.62;2.40;;;;;;;;;;4294968;33;20075;-79
2023/08/13 10:15:34;;;;;;;2.25;2.08;;;;;;;;;;4295501;33;20055;-80
2023/08/13 10:18:02;;;;;;;4.22;1.98;;;;;;;;;;4295048;33;20053;-79
2023/08/13 10:20:29;;;;;;;2.45;2.25;;;;;;;;;;4265907;33;20097;-79
2023/08/13 10:22:55;;;;;;;2.47;2.28;;;;;;;;;;4264281;33;20383;-79
2023/08/13 10:25:33;;;;;;;4.05;2.22;;;;;;;;;;4267834;33;20495;-78
2023/08/13 10:28:18;;;;;;;4.12;2.12;;;;;;;;;;4267712;33;20458;-80
2023/08/13 10:30:45;;;;;;;5.80;1.90;;;;;;;;;;4237295;33;20050;-80
2023/08/13 10:33:11;;;;;;;5.57;2.37;;;;;;;;;;4239143;33;20072;-80
2023/08/13 10:35:40;;;;;;;2.58;2.40;;;;;;;;;;4239897;33;20422;-80
2023/08/13 10:38:07;;;;;;;6.45;2.58;;;;;;;;;;4266709;33;20077;-81
2023/08/13 10:40:34;;;;;;;2.60;2.15;;;;;;;;;;4264783;33;20063;-82
2023/08/13 10:43:03;;;;;;;4.65;2.17;;;;;;;;;;4266604;33;20259;-80
2023/08/13 10:45:32;;;;;;;5.28;2.20;;;;;;;;;;4267623;33;20375;-79
2023/08/13 10:48:03;;;;;;;1.95;1.85;;;;;;;;;;4267763;33;20082;-79
2023/08/13 10:50:31;;;;;;;3.27;1.90;;;;;;;;;;4266250;33;20041;-84
2023/08/13 10:53:00;;;;;;;2.05;2.05;;;;;;;;;;4297030;33;20184;-80
2023/08/13 10:55:28;;;;;;;2.50;2.30;;;;;;;;;;4296864;33;20053;-79
2023/08/13 10:57:54;;;;;;;3.05;1.70;;;;;;;;;;4296395;33;20045;-79
2023/08/13 11:03:23;;;;;;;11.57;2.22;;;;;;;;;;4292687;33;20453;-82
2023/08/13 11:05:50;;;;;;;2.25;1.90;;;;;;;;;;4301904;33;20040;-81
2023/08/13 11:08:16;;;;;;;2.47;2.28;;;;;;;;;;4309657;33;20105;-80
2023/08/13 11:10:45;;;;;;;7.65;2.70;;;;;;;;;;4308211;33;20117;-80
2023/08/13 11:13:12;;;;;;;5.87;2.55;;;;;;;;;;4307811;33;20221;-79
2023/08/13 11:15:38;;;;;;;4.95;2.87;;;;;;;;;;4306993;33;20111;-83
2023/08/13 11:18:04;;;;;;;5.03;2.28;;;;;;;;;;4306609;33;20094;-81
2023/08/13 11:20:31;;;;;;;2.53;2.40;;;;;;;;;;4301033;33;20061;-80
2023/08/13 11:22:57;;;;;;;4.25;2.45;;;;;;;;;;4297738;33;20048;-80
2023/08/13 11:25:25;;;;;;;3.55;3.25;;;;;;;;;;4298670;33;20049;-80
2023/08/13 11:27:52;;;;;;;2.00;1.90;;;;;;;;;;4296413;33;20045;-83
2023/08/13 11:30:18;;;;;;;5.65;2.45;;;;;;;;;;4297877;33;20094;-81
2023/08/13 11:32:44;;;;;;;1.95;1.85;;;;;;;;;;4298414;33;20049;-81
2023/08/13 11:35:11;;;;;;;7.18;2.33;;;;;;;;;;4297789;33;20122;-81
2023/08/13 11:37:37;;;;;;;2.28;2.15;;;;;;;;;;4298035;33;20093;-78
2023/08/13 11:40:05;;;;;;;2.92;2.72;;;;;;;;;;4294056;33;20067;-82
2023/08/13 11:42:32;;;;;;;3.65;2.10;;;;;;;;;;4297918;33;20088;-80
2023/08/13 11:44:58;;;;;;;2.15;2.05;;;;;;;;;;4297854;33;20344;-79
2023/08/13 11:47:25;;;;;;;3.50;2.35;;;;;;;;;;4297796;33;20104;-79
2023/08/13 11:49:52;;;;;;;2.80;2.50;;;;;;;;;;4297595;33;20176;-80
2023/08/13 11:52:18;;;;;;;2.45;2.12;;;;;;;;;;4295393;33;20053;-80
2023/08/13 11:54:44;;;;;;;4.85;2.70;;;;;;;;;;4297346;33;20731;-80
2023/08/13 11:57:10;;;;;;;10.52;2.65;;;;;;;;;;4297638;33;20423;-80
2023/08/13 11:59:37;;;;;;;3.15;2.87;;;;;;;;;;4295970;33;20053;-80
2023/08/13 12:02:02;;;;;;;3.22;2.75;;;;;;;;;;4295724;33;20099;-82
2023/08/13 12:04:31;;;;;;;2.90;2.70;;;;;;;;;;4295570;33;20062;-80
2023/08/13 12:06:57;;;;;;;3.17;2.97;;;;;;;;;;4297381;33;20193;-80
2023/08/13 12:09:23;;;;;;;3.78;2.55;;;;;;;;;;4279670;33;20042;-80
2023/08/13 12:11:52;;;;;;;3.28;3.08;;;;;;;;;;4279737;33;20029;-79
2023/08/13 12:14:18;;;;;;;3.05;2.78;;;;;;;;;;4280447;33;20046;-83
2023/08/13 12:16:44;;;;;;;3.25;3.00;;;;;;;;;;4278354;33;20042;-79
2023/08/13 12:19:10;;;;;;;3.25;2.67;;;;;;;;;;4280335;33;20061;-80
2023/08/13 12:21:42;;;;;;;5.18;3.10;;;;;;;;;;4278980;33;20041;-81
2023/08/13 12:24:09;;;;;;;3.03;2.37;;;;;;;;;;4279194;33;20045;-80
2023/08/13 12:26:35;;;;;;;4.05;2.87;;;;;;;;;;4278172;33;20067;-80
2023/08/13 12:29:02;;;;;;;4.57;2.65;;;;;;;;;;4280895;33;20092;-79
2023/08/13 12:31:29;;;;;;;2.47;2.35;;;;;;;;;;4280679;33;20037;-79
2023/08/13 12:33:56;;;;;;;2.47;2.28;;;;;;;;;;4271485;33;20042;-79
2023/08/13 12:36:22;;;;;;;6.40;2.80;;;;;;;;;;4265677;33;20539;-78
2023/08/13 12:38:48;;;;;;;2.85;2.65;;;;;;;;;;4263708;33;20050;-81
2023/08/13 12:41:14;;;;;;;2.92;2.72;;;;;;;;;;4288291;33;20052;-78
2023/08/13 12:43:40;;;;;;;2.85;2.70;;;;;;;;;;4295978;33;20058;-79
2023/08/13 12:46:07;;;;;;;5.87;4.53;;;;;;;;;;4297444;33;20349;-80
2023/08/13 12:48:35;;;;;;;4.97;2.67;;;;;;;;;;4295606;33;20058;-81
2023/08/13 12:51:02;;;;;;;6.37;2.62;;;;;;;;;;4295309;33;20077;-82
2023/08/13 12:53:29;;;;;;;2.45;2.25;;;;;;;;;;4297174;33;20071;-79
2023/08/13 12:55:55;;;;;;;4.87;2.40;;;;;;;;;;4295828;33;20447;-80
2023/08/13 12:58:21;;;;;;;2.80;2.60;;;;;;;;;;4284823;33;20046;-80
2023/08/13 13:00:47;;;;;;;4.97;2.85;;;;;;;;;;4281469;33;20041;-80
2023/08/13 13:03:14;;;;;;;4.12;2.65;;;;;;;;;;4289346;33;20381;-79
2023/08/13 13:05:40;;;;;;;4.47;2.70;;;;;;;;;;4296062;33;20049;-80
2023/08/13 13:08:06;;;;;;;6.43;2.30;;;;;;;;;;4296009;33;20398;-78
2023/08/13 13:10:32;;;;;;;4.68;2.60;;;;;;;;;;4295687;33;20033;-78
2023/08/13 13:12:58;;;;;;;2.40;2.30;;;;;;;;;;4295315;33;20049;-79
2023/08/13 13:15:24;;;;;;;2.08;1.98;;;;;;;;;;4295752;33;20038;-79
2023/08/13 13:17:51;;;;;;;2.00;1.87;;;;;;;;;;4268394;33;20093;-78
2023/08/13 13:20:18;;;;;;;2.35;2.25;;;;;;;;;;4267483;33;20329;-78
2023/08/13 13:22:44;;;;;;;3.25;2.12;;;;;;;;;;4267902;33;20037;-77
2023/08/13 13:25:11;;;;;;;3.62;2.20;;;;;;;;;;4266978;33;20467;-78
2023/08/13 13:27:38;;;;;;;2.35;2.15;;;;;;;;;;4264953;33;20056;-78
2023/08/13 13:30:06;;;;;;;3.15;2.83;;;;;;;;;;4268156;33;20312;-78
2023/08/13 13:32:33;;;;;;;8.20;2.33;;;;;;;;;;4268502;33;20059;-79
2023/08/13 13:34:59;;;;;;;2.15;2.05;;;;;;;;;;4270011;33;20034;-81
2023/08/13 13:37:27;;;;;;;5.15;2.50;;;;;;;;;;4264789;33;20041;-81
2023/08/13 13:39:53;;;;;;;2.45;2.25;;;;;;;;;;4265543;33;20059;-77
2023/08/13 13:42:19;;;;;;;3.40;2.80;;;;;;;;;;4261198;33;20490;-80
2023/08/13 13:44:45;;;;;;;4.37;3.70;;;;;;;;;;4266756;33;20022;-79
2023/08/13 13:47:11;;;;;;;2.45;2.25;;;;;;;;;;4266985;33;20049;-79
2023/08/13 13:49:37;;;;;;;2.50;2.30;;;;;;;;;;4290825;33;20092;-79
2023/08/13 13:52:03;;;;;;;5.65;3.05;;;;;;;;;;4295047;33;20060;-80
2023/08/13 13:54:30;;;;;;;12.32;2.30;;;;;;;;;;4296608;33;20057;-79
2023/08/13 13:56:56;;;;;;;2.50;2.40;;;;;;;;;;4295681;33;20386;-79
2023/08/13 13:59:23;;;;;;;2.72;1.60;;;;;;;;;;4296769;33;20029;-78
2023/08/13 14:01:50;;;;;;;3.97;1.98;;;;;;;;;;4295605;33;20057;-80
2023/08/13 14:04:17;;;;;;;2.28;2.15;;;;;;;;;;4293311;33;20366;-78
2023/08/13 14:06:49;;;;;;;2.12;2.03;;;;;;;;;;4279698;33;20050;-80
2023/08/13 14:09:15;;;;;;;1.60;1.55;;;;;;;;;;4281057;33;20411;-79
2023/08/13 14:11:42;;;;;;;3.05;2.28;;;;;;;;;;4279311;33;20033;-78
2023/08/13 14:14:08;;;;;;;1.90;1.80;;;;;;;;;;4279138;33;20093;-78
2023/08/13 14:16:34;;;;;;;7.15;2.00;;;;;;;;;;4280695;33;20053;-78
2023/08/13 14:19:00;;;;;;;1.95;1.85;;;;;;;;;;4281613;33;20090;-77
2023/08/13 14:21:26;;;;;;;3.40;1.77;;;;;;;;;;4281450;33;20386;-78
2023/08/13 14:23:52;;;;;;;3.65;1.77;;;;;;;;;;4280534;33;20041;-77
2023/08/13 14:26:19;;;;;;;2.60;2.25;;;;;;;;;;4278198;33;20062;-78
2023/08/13 14:28:44;;;;;;;5.90;2.30;;;;;;;;;;4281273;33;20075;-78
2023/08/13 14:31:11;;;;;;;1.70;1.65;;;;;;;;;;4280849;33;20126;-78
2023/08/13 14:33:37;;;;;;;2.65;1.75;;;;;;;;;;4280048;33;20038;-80
2023/08/13 14:36:03;;;;;;;1.80;1.70;;;;;;;;;;4280683;33;20041;-79
2023/08/13 14:38:29;;;;;;;4.37;1.92;;;;;;;;;;4278530;33;20073;-82
2023/08/13 14:40:56;;;;;;;2.20;2.10;;;;;;;;;;4266033;33;20469;-79
2023/08/13 14:43:22;;;;;;;3.42;1.92;;;;;;;;;;4265598;33;20038;-80
2023/08/13 14:45:49;;;;;;;1.50;1.50;;;;;;;;;;4266786;33;20045;-79
2023/08/13 14:48:15;;;;;;;2.25;1.50;;;;;;;;;;4265860;33;20049;-79
2023/08/13 14:50:41;;;;;;;1.60;1.50;;;;;;;;;;4264707;33;20089;-80
2023/08/13 14:53:07;;;;;;;1.80;1.80;;;;;;;;;;4264480;33;20072;-79
2023/08/13 14:55:34;;;;;;;1.70;1.65;;;;;;;;;;4266381;33;20428;-78
2023/08/13 14:58:00;;;;;;;2.40;2.30;;;;;;;;;;4265863;33;20100;-79
2023/08/13 15:00:27;;;;;;;3.85;1.98;;;;;;;;;;4265149;33;20071;-78
2023/08/13 15:02:55;;;;;;;4.60;1.80;;;;;;;;;;4263205;33;20046;-79
2023/08/13 15:05:22;;;;;;;3.65;1.92;;;;;;;;;;4264947;33;20684;-81
2023/08/13 15:07:48;;;;;;;3.58;1.67;;;;;;;;;;4265527;33;20081;-79
2023/08/13 15:10:14;;;;;;;1.95;1.70;;;;;;;;;;4252280;33;20077;-80
2023/08/13 15:12:40;;;;;;;1.60;1.45;;;;;;;;;;4277282;33;20058;-79
2023/08/13 15:15:06;;;;;;;2.30;1.67;;;;;;;;;;4280151;33;20061;-82
2023/08/13 15:17:33;;;;;;;1.77;1.67;;;;;;;;;;4277985;33;20425;-80
2023/08/13 15:19:59;;;;;;;2.05;1.87;;;;;;;;;;4279246;33;20482;-81
2023/08/13 15:22:25;;;;;;;2.97;1.70;;;;;;;;;;4279369;33;20037;-79
2023/08/13 15:24:52;;;;;;;1.75;1.60;;;;;;;;;;4279616;33;20053;-78
2023/08/13 15:27:17;;;;;;;1.60;1.58;;;;;;;;;;4280511;33;20045;-79
2023/08/13 15:29:44;;;;;;;1.52;1.52;;;;;;;;;;4277156;33;20345;-78
2023/08/13 15:32:10;;;;;;;1.60;1.50;;;;;;;;;;4292907;33;20079;-79
2023/08/13 15:34:36;;;;;;;3.00;2.00;;;;;;;;;;4280993;33;20049;-79
2023/08/13 15:37:02;;;;;;;2.08;1.62;;;;;;;;;;4293009;33;20033;-80
2023/08/13 15:39:42;;;;;;;5.15;1.77;;;;;;;;;;4293483;33;20070;-79
2023/08/13 15:42:08;;;;;;;1.70;1.60;;;;;;;;;;4292333;33;20042;-80
2023/08/13 15:44:35;;;;;;;2.58;1.87;;;;;;;;;;4292112;33;20075;-79
2023/08/13 15:47:01;;;;;;;2.45;1.90;;;;;;;;;;4293614;33;20490;-80
2023/08/13 15:49:27;;;;;;;1.73;1.62;;;;;;;;;;4293578;33;20107;-80
2023/08/13 15:51:54;;;;;;;5.90;1.80;;;;;;;;;;4290189;33;20075;-80
2023/08/13 15:54:20;;;;;;;4.95;1.65;;;;;;;;;;4293135;33;20288;-80
2023/08/13 15:56:46;;;;;;;1.83;1.73;;;;;;;;;;4295093;33;20255;-81
2023/08/13 15:59:13;;;;;;;1.85;1.75;;;;;;;;;;4295053;33;20044;-80
2023/08/13 16:01:39;;;;;;;1.77;1.50;;;;;;;;;;4294742;33;20079;-80
2023/08/13 16:04:05;;;;;;;1.48;1.48;;;;;;;;;;4294442;33;20107;-82
2023/08/13 16:06:32;;;;;;;2.50;1.50;;;;;;;;;;4297511;33;20185;-80
2023/08/13 16:08:58;;;;;;;1.80;1.70;;;;;;;;;;4296978;33;20326;-79
2023/08/13 16:11:24;;;;;;;1.52;1.42;;;;;;;;;;4296464;33;20049;-81
2023/08/13 16:13:51;;;;;;;1.60;1.60;;;;;;;;;;4296531;33;20057;-80
2023/08/13 16:16:17;;;;;;;4.45;1.45;;;;;;;;;;4294654;33;20034;-80
2023/08/13 16:18:44;;;;;;;1.83;1.70;;;;;;;;;;4296453;33;20056;-80
2023/08/13 16:23:43;;;;;;;4.28;1.65;;;;;;;;;;4297083;33;20042;-81
2023/08/13 16:26:10;;;;;;;2.80;1.30;;;;;;;;;;4295461;33;20088;-81
2023/08/13 16:28:36;;;;;;;4.03;3.03;;;;;;;;;;4294709;33;20063;-78
2023/08/13 16:31:03;;;;;;;2.20;2.00;;;;;;;;;;4308723;33;20041;-80
2023/08/13 16:33:29;;;;;;;1.77;1.70;;;;;;;;;;4309407;33;20454;-80
2023/08/13 16:35:55;;;;;;;1.50;1.40;;;;;;;;;;4308185;33;20051;-80
2023/08/13 16:38:21;;;;;;;1.77;1.73;;;;;;;;;;4306339;33;20070;-80
2023/08/13 16:40:48;;;;;;;1.70;1.58;;;;;;;;;;4308570;33;20057;-80
2023/08/13 16:43:15;;;;;;;3.83;1.50;;;;;;;;;;4309627;33;20443;-81
2023/08/13 16:45:41;;;;;;;1.62;1.52;;;;;;;;;;4308947;33;20098;-80